• Join FlightAware (Why Join?)
  • Login
  • US Flag 
 
06:21PM EST


 

Airport Tracker/Info


-or-


 

Live Flight TrackerFlight Track Log ✈ N135AJ ✈ 30-Apr-2013 ✈ KSDL - KSDL

Flight Track Log - Related Links

Times and Time Zones

All times are in EDT time to prevent confusion due to time zone crossing. See the N135AJ flight status page for this flight to view local times or setup timezone preferences in your user account.

Time Position Orientation Groundspeed Altitude Reporting Facility
EDT Latitude Longitude Course Direction KTS MPH feet Rate Location/Type
05:47PM 33.6167 -111.9333 284° West 181 208 2,300  Level Phoenix TRACON
05:49PM 33.6333 -112.0128 284° West 197 227 6,000 2,100 Climbing Albuquerque Center
05:50PM 33.6650 -112.0794 300° West 229 264 8,100 2,460 Climbing Albuquerque Center
05:51PM 33.7497 -112.1003 348° North 290 334 11,200 2,700 Climbing Albuquerque Center
05:52PM 33.7981 -112.0156 56° Northeast 322 371 13,800 1,800 Climbing Albuquerque Center
05:53PM 33.8247 -111.9108 73° East 331 381 15,000 540 Climbing Albuquerque Center
05:54PM 33.8606 -111.8164 65° Northeast 319 367 15,000  Level Albuquerque Center
05:55PM 33.9300 -111.7661 31° Northeast 298 343 15,000  Level Albuquerque Center
05:56PM 34.0208 -111.7317 17° North 296 341 15,000  Level Albuquerque Center
05:57PM 34.0978 -111.7028 17° North 294 338 15,000  Level Albuquerque Center
05:58PM 34.1772 -111.6786 14° North 291 335 15,000  Level Albuquerque Center
05:59PM 34.2489 -111.6261 31° Northeast 304 350 15,000  Level Albuquerque Center
06:00PM 34.3219 -111.5464 42° Northeast 298 343 15,000  Level Albuquerque Center
06:01PM 34.3839 -111.4856 39° Northeast 291 335 15,000  Level Albuquerque Center
06:02PM 34.4428 -111.4269 39° Northeast 280 322 15,000  Level Albuquerque Center
06:03PM 34.4992 -111.3689 40° Northeast 272 313 15,000  Level Albuquerque Center
06:04PM 34.5544 -111.3136 39° Northeast 262 302 15,100  Climbing Albuquerque Center
06:05PM 34.6128 -111.2550 40° Northeast 266 306 15,100  Level Albuquerque Center
06:06PM 34.6800 -111.1867 40° Northeast 265 305 15,100  Level Albuquerque Center
06:07PM 34.7375 -111.1264 41° Northeast 269 310 15,100 -60 Level Albuquerque Center
06:08PM 34.7969 -111.0675 39° Northeast 275 316 15,000 -120 Descending Albuquerque Center
06:09PM 34.8539 -111.0081 41° Northeast 271 312 14,900  Descending Albuquerque Center
06:10PM 34.9083 -110.9514 40° Northeast 261 300 15,000  Climbing Albuquerque Center
06:11PM 34.9636 -110.8953 40° Northeast 259 298 15,000  Level Albuquerque Center
06:13PM 35.0219 -110.8617 25° Northeast 242 278 15,000  Level Albuquerque Center
06:14PM 35.0686 -110.9339 308° West 238 274 15,000  Level Albuquerque Center
06:15PM 35.0822 -111.0114 282° West 243 280 15,000  Level Albuquerque Center
06:16PM 35.0892 -111.0942 276° West 244 281 15,100  Climbing Albuquerque Center
06:17PM 35.0969 -111.1747 277° West 243 280 15,000 -120 Descending Albuquerque Center
06:18PM 35.0444 -111.2258 219° Southwest 245 282 14,900  Descending Albuquerque Center
06:19PM 34.9894 -111.2714 214° Southwest 242 278 15,100  Climbing Albuquerque Center
06:20PM 34.9219 -111.3272 214° Southwest 243 280 15,000 -60 Descending Albuquerque Center
06:21PM 34.8639 -111.3767 215° Southwest 252 290 15,000  Level Albuquerque Center
06:22PM 34.8044 -111.4253 214° Southwest 256 295 15,000  Level Albuquerque Center
06:23PM 34.7472 -111.4728 214° Southwest 253 291 15,000  Level Albuquerque Center
06:24PM 34.6942 -111.5161 214° Southwest 236 272 15,000  Level Albuquerque Center
06:25PM 34.6439 -111.5578 214° Southwest 224 258 15,000  Level Albuquerque Center
06:26PM 34.5656 -111.6217 214° Southwest 284 327 15,000 -720 Level Albuquerque Center
06:27PM 34.4986 -111.6769 214° Southwest 294 338 13,600 -1,500 Descending Albuquerque Center
06:28PM 34.4347 -111.7297 214° Southwest 284 327 11,900 -1,260 Descending Albuquerque Center
06:29PM 34.3725 -111.7806 214° Southwest 276 318 11,000 -480 Descending Albuquerque Center
06:30PM 34.3119 -111.8292 214° Southwest 266 306 11,000  Level Albuquerque Center
06:31PM 34.2425 -111.8864 214° Southwest 256 295 11,000  Level Albuquerque Center
06:32PM 34.1778 -111.9233 205° Southwest 267 307 11,000 -540 Level Albuquerque Center
06:33PM 34.1036 -111.9264 182° South 268 308 10,000 -1,440 Descending Albuquerque Center
06:34PM 34.0286 -111.9311 183° South 273 314 8,100 -1,080 Descending Albuquerque Center
06:35PM 33.9578 -111.9361 183° South 261 300 7,800 -540 Descending Albuquerque Center
06:36PM 33.8800 -111.9283 175° South 238 274 7,000 -780 Descending Albuquerque Center
06:37PM 33.8161 -111.9136 169° South 237 273 6,300 -1,620 Descending Albuquerque Center
06:38PM 33.7550 -111.8889 161° South 234 269 3,700 -1,680 Descending Albuquerque Center
06:39PM 33.7033 -111.8786 171° South 200 230 2,900 -540 Descending Albuquerque Center
06:40PM 33.6625 -111.8725 173° South 171 197 2,600 -540 Descending Albuquerque Center
06:41PM 33.6336 -111.8975 216° Southwest 139 160 1,900 -720 Descending Albuquerque Center
06:43PM 33.6229 -111.9105 180° South  Level Estimated